Flag for USA

Past Weather in 42°22'57"N, 83°25'56"W, USA — Yesterday and Last 2 Weeks

Currently: 67 °F. Passing clouds. (Weather station: Detroit City Airport, USA). See more current weather

Past Weather in 42°22'57"N, 83°25'56"W — Graph

°F

42°22'57"N, 83°25'56"W Temperature Yesterday

Maximum temperature yesterday: 82 °F (at 4:53 pm)
Minimum temperature yesterday: 63 °F (at 11:53 pm)
Average temperature yesterday: 71 °F

High & Low Weather Summary for the Past Weeks

 TemperatureHumidityPressure
High88 °F (Sep 14, 3:53 pm)96% (Sep 23, 6:53 am)30.22 "Hg (Sep 23, 6:53 am)
Low50 °F (Sep 24, 6:53 am)36% (Sep 24, 3:53 pm)29.59 "Hg (Sep 23, 5:01 am)
Average66 °F73%29.96 "Hg
* Reported Sep 13 11:53 am — Sep 28 11:08 am, 42°22'57"N, 83°25'56"W. Weather by CustomWeather, © 2021

Note: Actual official high and low records may vary slightly from our data, if they occured in-between our weather recording intervals... More about our weather records

42°22'57"N, 83°25'56"W Weather History for the Previous 24 Hours

Scroll right to see more
 ConditionsComfort  
Time TempWeatherWind HumidityBarometerVisibility
11:08 am
Tue, Sep 28
65 °FScattered clouds.7 mph63%30.02 "Hg10 mi
11:00 am66 °FPartly sunny.10 mph63%30.02 "Hg10 mi
9:53 am64 °FSunny.10 mph68%30.00 "Hg10 mi
8:53 am61 °FSunny.10 mph75%29.99 "Hg10 mi
7:53 am58 °FSunny.7 mph84%29.97 "Hg10 mi
6:53 am58 °FClear.8 mph84%29.95 "Hg10 mi
5:53 am59 °FClear.8 mph84%29.92 "Hg10 mi
4:53 am62 °FOvercast.9 mph78%29.90 "Hg10 mi
3:53 am62 °FPassing clouds.8 mph78%29.88 "Hg10 mi
2:53 am63 °FOvercast.8 mph75%29.88 "Hg10 mi
1:53 am63 °FOvercast.8 mph75%29.87 "Hg10 mi
12:53 am63 °FPassing clouds.12 mph81%29.87 "Hg10 mi
12:06 am63 °FPassing clouds.9 mph81%29.87 "Hg10 mi
11:53 pm
Mon, Sep 27
63 °FPassing clouds.9 mph81%29.86 "Hg10 mi
10:53 pm65 °FClear.7 mph76%29.84 "Hg10 mi
9:53 pm67 °FClear.8 mph73%29.83 "Hg10 mi
8:53 pm69 °FMostly cloudy.12 mph73%29.81 "Hg10 mi
7:53 pm78 °FPassing clouds.3 mph54%29.78 "Hg10 mi
6:53 pm80 °FSunny.5 mph51%29.76 "Hg10 mi
5:53 pm82 °FSunny.5 mph46%29.74 "Hg10 mi
4:53 pm82 °FSunny.10 mph46%29.74 "Hg10 mi
3:53 pm81 °FSunny.9 mph47%29.74 "Hg10 mi
2:53 pm80 °FSunny.10 mph49%29.75 "Hg10 mi
1:53 pm78 °FSunny.8 mph48%29.76 "Hg10 mi
12:53 pm76 °FSunny.12 mph50%29.78 "Hg10 mi
Weather by CustomWeather, © 2021

See weather overview